sensor_id;sensor_type;location;lat;lon;timestamp;P1;durP1;ratioP1;P2;durP2;ratioP2
49502;SDS011;35409;48.776;9.204;2023-12-20T00:02:18;1.45;;;1.20;;
49502;SDS011;35409;48.776;9.204;2023-12-20T00:04:43;0.95;;;0.85;;
49502;SDS011;35409;48.776;9.204;2023-12-20T00:07:09;1.45;;;0.90;;
49502;SDS011;35409;48.776;9.204;2023-12-20T00:09:34;1.00;;;0.90;;
49502;SDS011;35409;48.776;9.204;2023-12-20T00:12:00;1.48;;;1.00;;
49502;SDS011;35409;48.776;9.204;2023-12-20T00:14:25;0.98;;;0.93;;
49502;SDS011;35409;48.776;9.204;2023-12-20T00:16:51;1.33;;;0.75;;
49502;SDS011;35409;48.776;9.204;2023-12-20T00:19:17;0.85;;;0.63;;
49502;SDS011;35409;48.776;9.204;2023-12-20T00:21:42;1.05;;;0.80;;
49502;SDS011;35409;48.776;9.204;2023-12-20T00:24:08;1.40;;;1.13;;
49502;SDS011;35409;48.776;9.204;2023-12-20T00:26:33;0.55;;;0.50;;
49502;SDS011;35409;48.776;9.204;2023-12-20T00:28:59;1.20;;;0.73;;
49502;SDS011;35409;48.776;9.204;2023-12-20T00:31:25;0.63;;;0.63;;
49502;SDS011;35409;48.776;9.204;2023-12-20T00:33:50;2.33;;;0.70;;
49502;SDS011;35409;48.776;9.204;2023-12-20T00:36:16;1.42;;;0.90;;
49502;SDS011;35409;48.776;9.204;2023-12-20T00:38:41;1.42;;;0.77;;
49502;SDS011;35409;48.776;9.204;2023-12-20T00:41:07;1.15;;;0.77;;
49502;SDS011;35409;48.776;9.204;2023-12-20T00:43:33;0.80;;;0.77;;
49502;SDS011;35409;48.776;9.204;2023-12-20T00:45:58;1.08;;;0.75;;
49502;SDS011;35409;48.776;9.204;2023-12-20T00:48:25;1.27;;;1.05;;
49502;SDS011;35409;48.776;9.204;2023-12-20T00:50:52;1.20;;;0.65;;
49502;SDS011;35409;48.776;9.204;2023-12-20T00:53:17;0.90;;;0.50;;
49502;SDS011;35409;48.776;9.204;2023-12-20T00:55:44;1.73;;;0.80;;
49502;SDS011;35409;48.776;9.204;2023-12-20T00:58:10;1.35;;;0.80;;
49502;SDS011;35409;48.776;9.204;2023-12-20T01:00:36;2.35;;;0.90;;
49502;SDS011;35409;48.776;9.204;2023-12-20T01:03:01;1.27;;;0.70;;
49502;SDS011;35409;48.776;9.204;2023-12-20T01:05:27;0.80;;;0.68;;
49502;SDS011;35409;48.776;9.204;2023-12-20T01:07:52;1.23;;;1.00;;
49502;SDS011;35409;48.776;9.204;2023-12-20T01:10:18;1.00;;;0.90;;
49502;SDS011;35409;48.776;9.204;2023-12-20T01:12:43;2.42;;;1.00;;
49502;SDS011;35409;48.776;9.204;2023-12-20T01:15:09;1.70;;;0.85;;
49502;SDS011;35409;48.776;9.204;2023-12-20T01:17:35;1.35;;;0.90;;
49502;SDS011;35409;48.776;9.204;2023-12-20T01:20:01;1.75;;;0.75;;
49502;SDS011;35409;48.776;9.204;2023-12-20T01:22:26;1.15;;;0.73;;
49502;SDS011;35409;48.776;9.204;2023-12-20T01:24:52;1.55;;;0.85;;
49502;SDS011;35409;48.776;9.204;2023-12-20T01:27:18;3.05;;;1.17;;
49502;SDS011;35409;48.776;9.204;2023-12-20T01:29:43;1.33;;;0.80;;
49502;SDS011;35409;48.776;9.204;2023-12-20T01:32:09;1.95;;;0.75;;
49502;SDS011;35409;48.776;9.204;2023-12-20T01:34:35;1.70;;;1.02;;
49502;SDS011;35409;48.776;9.204;2023-12-20T01:37:01;1.60;;;0.95;;
49502;SDS011;35409;48.776;9.204;2023-12-20T01:39:27;3.13;;;0.95;;
49502;SDS011;35409;48.776;9.204;2023-12-20T01:41:53;1.00;;;0.90;;
49502;SDS011;35409;48.776;9.204;2023-12-20T01:44:19;1.50;;;0.98;;
49502;SDS011;35409;48.776;9.204;2023-12-20T01:46:44;1.17;;;0.85;;
49502;SDS011;35409;48.776;9.204;2023-12-20T01:49:11;1.13;;;0.95;;
49502;SDS011;35409;48.776;9.204;2023-12-20T01:51:37;1.00;;;0.90;;
49502;SDS011;35409;48.776;9.204;2023-12-20T01:54:02;2.97;;;1.10;;
49502;SDS011;35409;48.776;9.204;2023-12-20T01:56:29;1.13;;;0.93;;
49502;SDS011;35409;48.776;9.204;2023-12-20T01:58:56;2.25;;;1.30;;
49502;SDS011;35409;48.776;9.204;2023-12-20T02:01:22;1.50;;;1.27;;
49502;SDS011;35409;48.776;9.204;2023-12-20T02:03:48;1.08;;;0.98;;
49502;SDS011;35409;48.776;9.204;2023-12-20T02:06:14;1.88;;;1.30;;
49502;SDS011;35409;48.776;9.204;2023-12-20T02:08:40;1.55;;;1.17;;
49502;SDS011;35409;48.776;9.204;2023-12-20T02:11:05;1.83;;;1.27;;
49502;SDS011;35409;48.776;9.204;2023-12-20T02:13:31;1.40;;;1.15;;
49502;SDS011;35409;48.776;9.204;2023-12-20T02:15:57;2.47;;;1.50;;
49502;SDS011;35409;48.776;9.204;2023-12-20T02:18:22;3.03;;;1.80;;
49502;SDS011;35409;48.776;9.204;2023-12-20T02:20:48;1.38;;;1.27;;
49502;SDS011;35409;48.776;9.204;2023-12-20T02:23:14;1.65;;;1.33;;
49502;SDS011;35409;48.776;9.204;2023-12-20T02:25:39;2.95;;;1.33;;
49502;SDS011;35409;48.776;9.204;2023-12-20T02:28:05;1.38;;;1.17;;
49502;SDS011;35409;48.776;9.204;2023-12-20T02:30:31;1.50;;;1.30;;
49502;SDS011;35409;48.776;9.204;2023-12-20T02:32:57;1.67;;;1.20;;
49502;SDS011;35409;48.776;9.204;2023-12-20T02:35:25;1.77;;;1.13;;
49502;SDS011;35409;48.776;9.204;2023-12-20T02:37:50;1.85;;;1.27;;
49502;SDS011;35409;48.776;9.204;2023-12-20T02:40:16;3.05;;;1.35;;
49502;SDS011;35409;48.776;9.204;2023-12-20T02:42:41;1.98;;;1.20;;
49502;SDS011;35409;48.776;9.204;2023-12-20T02:45:07;4.00;;;1.40;;
49502;SDS011;35409;48.776;9.204;2023-12-20T02:47:33;3.30;;;1.30;;
49502;SDS011;35409;48.776;9.204;2023-12-20T02:49:58;3.22;;;1.42;;
49502;SDS011;35409;48.776;9.204;2023-12-20T02:52:24;1.80;;;1.23;;
49502;SDS011;35409;48.776;9.204;2023-12-20T02:54:50;1.35;;;1.25;;
49502;SDS011;35409;48.776;9.204;2023-12-20T02:57:16;1.35;;;1.13;;
49502;SDS011;35409;48.776;9.204;2023-12-20T02:59:41;2.97;;;1.40;;
49502;SDS011;35409;48.776;9.204;2023-12-20T03:02:07;4.50;;;1.98;;
49502;SDS011;35409;48.776;9.204;2023-12-20T03:04:32;3.80;;;1.92;;
49502;SDS011;35409;48.776;9.204;2023-12-20T03:06:58;2.10;;;1.42;;
49502;SDS011;35409;48.776;9.204;2023-12-20T03:09:24;2.28;;;1.95;;
49502;SDS011;35409;48.776;9.204;2023-12-20T03:11:49;4.95;;;2.00;;
49502;SDS011;35409;48.776;9.204;2023-12-20T03:14:15;1.88;;;1.60;;
49502;SDS011;35409;48.776;9.204;2023-12-20T03:16:40;3.60;;;1.70;;
49502;SDS011;35409;48.776;9.204;2023-12-20T03:19:06;2.63;;;1.92;;
49502;SDS011;35409;48.776;9.204;2023-12-20T03:21:32;2.67;;;1.80;;
49502;SDS011;35409;48.776;9.204;2023-12-20T03:23:57;4.13;;;1.80;;
49502;SDS011;35409;48.776;9.204;2023-12-20T03:26:23;3.35;;;2.10;;
49502;SDS011;35409;48.776;9.204;2023-12-20T03:28:48;2.00;;;1.80;;
49502;SDS011;35409;48.776;9.204;2023-12-20T03:31:14;1.90;;;1.70;;
49502;SDS011;35409;48.776;9.204;2023-12-20T03:33:39;2.28;;;1.73;;
49502;SDS011;35409;48.776;9.204;2023-12-20T03:36:05;2.70;;;2.10;;
49502;SDS011;35409;48.776;9.204;2023-12-20T03:38:31;2.15;;;1.45;;
49502;SDS011;35409;48.776;9.204;2023-12-20T03:40:56;1.30;;;1.20;;
49502;SDS011;35409;48.776;9.204;2023-12-20T03:43:22;2.15;;;1.60;;
49502;SDS011;35409;48.776;9.204;2023-12-20T03:45:47;2.33;;;1.50;;
49502;SDS011;35409;48.776;9.204;2023-12-20T03:48:13;1.45;;;1.30;;
49502;SDS011;35409;48.776;9.204;2023-12-20T03:50:39;2.75;;;1.50;;
49502;SDS011;35409;48.776;9.204;2023-12-20T03:53:04;1.75;;;1.17;;
49502;SDS011;35409;48.776;9.204;2023-12-20T03:55:30;2.05;;;1.08;;
49502;SDS011;35409;48.776;9.204;2023-12-20T03:57:55;1.10;;;1.00;;
49502;SDS011;35409;48.776;9.204;2023-12-20T04:00:21;0.88;;;0.70;;
49502;SDS011;35409;48.776;9.204;2023-12-20T04:02:46;0.93;;;0.80;;
49502;SDS011;35409;48.776;9.204;2023-12-20T04:05:12;0.73;;;0.50;;
49502;SDS011;35409;48.776;9.204;2023-12-20T04:07:38;0.80;;;0.70;;
49502;SDS011;35409;48.776;9.204;2023-12-20T04:10:03;0.40;;;0.40;;
49502;SDS011;35409;48.776;9.204;2023-12-20T04:12:30;0.43;;;0.38;;
49502;SDS011;35409;48.776;9.204;2023-12-20T04:14:56;0.30;;;0.30;;
49502;SDS011;35409;48.776;9.204;2023-12-20T04:17:22;0.73;;;0.30;;
49502;SDS011;35409;48.776;9.204;2023-12-20T04:19:48;0.40;;;0.22;;
49502;SDS011;35409;48.776;9.204;2023-12-20T04:22:14;2.22;;;0.45;;
49502;SDS011;35409;48.776;9.204;2023-12-20T04:24:39;0.32;;;0.30;;
49502;SDS011;35409;48.776;9.204;2023-12-20T04:27:07;0.52;;;0.35;;
49502;SDS011;35409;48.776;9.204;2023-12-20T04:29:33;0.10;;;0.10;;
49502;SDS011;35409;48.776;9.204;2023-12-20T04:31:59;0.15;;;0.15;;
49502;SDS011;35409;48.776;9.204;2023-12-20T04:34:25;0.20;;;0.20;;
49502;SDS011;35409;48.776;9.204;2023-12-20T04:36:51;0.20;;;0.20;;
49502;SDS011;35409;48.776;9.204;2023-12-20T04:39:16;1.45;;;0.13;;
49502;SDS011;35409;48.776;9.204;2023-12-20T04:41:42;1.13;;;0.20;;
49502;SDS011;35409;48.776;9.204;2023-12-20T04:44:08;0.85;;;0.30;;
49502;SDS011;35409;48.776;9.204;2023-12-20T04:46:33;0.08;;;0.08;;
49502;SDS011;35409;48.776;9.204;2023-12-20T04:48:59;1.00;;;0.30;;
49502;SDS011;35409;48.776;9.204;2023-12-20T04:51:24;1.13;;;0.20;;
49502;SDS011;35409;48.776;9.204;2023-12-20T04:53:50;0.10;;;0.10;;
49502;SDS011;35409;48.776;9.204;2023-12-20T04:56:15;0.47;;;0.22;;
49502;SDS011;35409;48.776;9.204;2023-12-20T04:58:42;0.32;;;0.25;;
49502;SDS011;35409;48.776;9.204;2023-12-20T05:01:08;0.88;;;0.20;;
49502;SDS011;35409;48.776;9.204;2023-12-20T05:03:34;0.63;;;0.10;;
49502;SDS011;35409;48.776;9.204;2023-12-20T05:06:00;0.63;;;0.00;;
49502;SDS011;35409;48.776;9.204;2023-12-20T05:08:25;2.40;;;0.20;;
49502;SDS011;35409;48.776;9.204;2023-12-20T05:10:52;0.20;;;0.10;;
49502;SDS011;35409;48.776;9.204;2023-12-20T05:13:19;0.10;;;0.10;;
49502;SDS011;35409;48.776;9.204;2023-12-20T05:15:45;2.75;;;0.28;;
49502;SDS011;35409;48.776;9.204;2023-12-20T05:18:10;0.13;;;0.10;;
49502;SDS011;35409;48.776;9.204;2023-12-20T05:20:36;1.10;;;0.15;;
49502;SDS011;35409;48.776;9.204;2023-12-20T05:23:02;0.28;;;0.10;;
49502;SDS011;35409;48.776;9.204;2023-12-20T05:25:27;0.20;;;0.10;;
49502;SDS011;35409;48.776;9.204;2023-12-20T05:27:53;0.30;;;0.20;;
49502;SDS011;35409;48.776;9.204;2023-12-20T05:30:19;0.32;;;0.10;;
49502;SDS011;35409;48.776;9.204;2023-12-20T05:32:44;0.17;;;0.17;;
49502;SDS011;35409;48.776;9.204;2023-12-20T05:35:10;0.85;;;0.22;;
49502;SDS011;35409;48.776;9.204;2023-12-20T05:37:35;1.65;;;0.28;;
49502;SDS011;35409;48.776;9.204;2023-12-20T05:40:01;0.50;;;0.20;;
49502;SDS011;35409;48.776;9.204;2023-12-20T05:42:26;0.40;;;0.20;;
49502;SDS011;35409;48.776;9.204;2023-12-20T05:44:52;0.88;;;0.20;;
49502;SDS011;35409;48.776;9.204;2023-12-20T05:47:18;0.68;;;0.25;;
49502;SDS011;35409;48.776;9.204;2023-12-20T05:49:43;0.75;;;0.20;;
49502;SDS011;35409;48.776;9.204;2023-12-20T05:52:10;0.10;;;0.10;;
49502;SDS011;35409;48.776;9.204;2023-12-20T05:54:35;0.77;;;0.17;;
49502;SDS011;35409;48.776;9.204;2023-12-20T05:57:01;0.82;;;0.40;;
49502;SDS011;35409;48.776;9.204;2023-12-20T05:59:27;1.42;;;0.10;;
49502;SDS011;35409;48.776;9.204;2023-12-20T06:01:52;2.17;;;0.40;;
49502;SDS011;35409;48.776;9.204;2023-12-20T06:04:18;0.63;;;0.10;;
49502;SDS011;35409;48.776;9.204;2023-12-20T06:06:44;1.05;;;0.32;;
49502;SDS011;35409;48.776;9.204;2023-12-20T06:09:10;0.93;;;0.50;;
49502;SDS011;35409;48.776;9.204;2023-12-20T06:11:35;1.15;;;0.47;;
49502;SDS011;35409;48.776;9.204;2023-12-20T06:14:01;2.85;;;0.40;;
49502;SDS011;35409;48.776;9.204;2023-12-20T06:16:27;1.50;;;0.50;;
49502;SDS011;35409;48.776;9.204;2023-12-20T06:18:52;1.00;;;0.60;;
49502;SDS011;35409;48.776;9.204;2023-12-20T06:21:18;3.45;;;0.70;;
49502;SDS011;35409;48.776;9.204;2023-12-20T06:23:44;2.08;;;0.40;;
49502;SDS011;35409;48.776;9.204;2023-12-20T06:26:09;3.53;;;0.60;;
49502;SDS011;35409;48.776;9.204;2023-12-20T06:28:35;2.50;;;0.38;;
49502;SDS011;35409;48.776;9.204;2023-12-20T06:31:00;2.38;;;0.80;;
49502;SDS011;35409;48.776;9.204;2023-12-20T06:33:26;2.08;;;0.88;;
49502;SDS011;35409;48.776;9.204;2023-12-20T06:35:52;3.35;;;0.90;;
49502;SDS011;35409;48.776;9.204;2023-12-20T06:38:18;2.00;;;0.85;;
49502;SDS011;35409;48.776;9.204;2023-12-20T06:40:44;0.40;;;0.40;;
49502;SDS011;35409;48.776;9.204;2023-12-20T06:43:10;2.25;;;1.05;;
49502;SDS011;35409;48.776;9.204;2023-12-20T06:45:36;0.63;;;0.50;;
49502;SDS011;35409;48.776;9.204;2023-12-20T06:48:02;1.33;;;0.60;;
49502;SDS011;35409;48.776;9.204;2023-12-20T06:50:28;1.95;;;1.60;;
49502;SDS011;35409;48.776;9.204;2023-12-20T06:52:53;2.58;;;1.33;;
49502;SDS011;35409;48.776;9.204;2023-12-20T06:55:19;1.30;;;0.77;;
49502;SDS011;35409;48.776;9.204;2023-12-20T06:57:45;5.95;;;0.93;;
49502;SDS011;35409;48.776;9.204;2023-12-20T07:00:11;4.03;;;1.40;;
49502;SDS011;35409;48.776;9.204;2023-12-20T07:02:37;1.30;;;0.90;;
49502;SDS011;35409;48.776;9.204;2023-12-20T07:05:03;2.30;;;0.98;;
49502;SDS011;35409;48.776;9.204;2023-12-20T07:07:29;3.17;;;1.08;;
49502;SDS011;35409;48.776;9.204;2023-12-20T07:09:55;1.38;;;0.80;;
49502;SDS011;35409;48.776;9.204;2023-12-20T07:12:20;0.82;;;0.73;;
49502;SDS011;35409;48.776;9.204;2023-12-20T07:14:46;1.73;;;0.70;;
49502;SDS011;35409;48.776;9.204;2023-12-20T07:17:12;1.55;;;1.00;;
49502;SDS011;35409;48.776;9.204;2023-12-20T07:19:39;2.50;;;0.82;;
49502;SDS011;35409;48.776;9.204;2023-12-20T07:22:05;2.97;;;0.80;;
49502;SDS011;35409;48.776;9.204;2023-12-20T07:24:31;1.95;;;0.68;;
49502;SDS011;35409;48.776;9.204;2023-12-20T07:26:58;0.55;;;0.55;;
49502;SDS011;35409;48.776;9.204;2023-12-20T07:29:25;3.03;;;1.08;;
49502;SDS011;35409;48.776;9.204;2023-12-20T07:31:50;2.00;;;0.68;;
49502;SDS011;35409;48.776;9.204;2023-12-20T07:34:18;1.02;;;0.90;;
49502;SDS011;35409;48.776;9.204;2023-12-20T07:36:43;1.10;;;1.00;;
49502;SDS011;35409;48.776;9.204;2023-12-20T07:39:10;2.45;;;1.00;;
49502;SDS011;35409;48.776;9.204;2023-12-20T07:41:35;1.65;;;1.17;;
49502;SDS011;35409;48.776;9.204;2023-12-20T07:44:01;1.90;;;1.55;;
49502;SDS011;35409;48.776;9.204;2023-12-20T07:46:26;3.78;;;1.42;;
49502;SDS011;35409;48.776;9.204;2023-12-20T07:48:52;1.70;;;1.50;;
49502;SDS011;35409;48.776;9.204;2023-12-20T07:51:17;4.10;;;1.98;;
49502;SDS011;35409;48.776;9.204;2023-12-20T07:53:43;3.58;;;1.90;;
49502;SDS011;35409;48.776;9.204;2023-12-20T07:56:15;2.17;;;1.60;;
49502;SDS011;35409;48.776;9.204;2023-12-20T07:58:42;2.05;;;1.85;;
49502;SDS011;35409;48.776;9.204;2023-12-20T08:01:08;2.63;;;1.92;;
49502;SDS011;35409;48.776;9.204;2023-12-20T08:03:34;2.70;;;2.42;;
49502;SDS011;35409;48.776;9.204;2023-12-20T08:06:00;3.50;;;2.15;;
49502;SDS011;35409;48.776;9.204;2023-12-20T08:08:25;4.00;;;2.10;;
49502;SDS011;35409;48.776;9.204;2023-12-20T08:10:51;2.60;;;2.40;;
49502;SDS011;35409;48.776;9.204;2023-12-20T08:13:17;3.20;;;2.20;;
49502;SDS011;35409;48.776;9.204;2023-12-20T08:15:42;3.30;;;2.53;;
49502;SDS011;35409;48.776;9.204;2023-12-20T08:18:08;3.35;;;1.75;;
49502;SDS011;35409;48.776;9.204;2023-12-20T08:20:33;3.22;;;2.15;;
49502;SDS011;35409;48.776;9.204;2023-12-20T08:22:59;2.75;;;2.10;;
49502;SDS011;35409;48.776;9.204;2023-12-20T08:25:25;3.70;;;2.08;;
49502;SDS011;35409;48.776;9.204;2023-12-20T08:27:51;3.65;;;2.35;;
49502;SDS011;35409;48.776;9.204;2023-12-20T08:30:16;4.32;;;2.63;;
49502;SDS011;35409;48.776;9.204;2023-12-20T08:32:45;3.20;;;2.30;;
49502;SDS011;35409;48.776;9.204;2023-12-20T08:35:11;6.07;;;2.13;;
49502;SDS011;35409;48.776;9.204;2023-12-20T08:37:37;3.88;;;2.03;;
49502;SDS011;35409;48.776;9.204;2023-12-20T08:40:02;3.67;;;2.15;;
49502;SDS011;35409;48.776;9.204;2023-12-20T08:42:28;2.60;;;2.40;;
49502;SDS011;35409;48.776;9.204;2023-12-20T08:44:56;7.03;;;2.38;;
49502;SDS011;35409;48.776;9.204;2023-12-20T08:47:23;3.30;;;2.42;;
49502;SDS011;35409;48.776;9.204;2023-12-20T08:49:49;4.05;;;2.28;;
49502;SDS011;35409;48.776;9.204;2023-12-20T08:52:14;3.85;;;2.50;;
49502;SDS011;35409;48.776;9.204;2023-12-20T08:54:40;4.65;;;2.45;;
49502;SDS011;35409;48.776;9.204;2023-12-20T08:57:06;3.15;;;2.20;;
49502;SDS011;35409;48.776;9.204;2023-12-20T08:59:32;3.65;;;2.13;;
49502;SDS011;35409;48.776;9.204;2023-12-20T09:01:57;3.33;;;2.33;;
49502;SDS011;35409;48.776;9.204;2023-12-20T09:04:23;4.78;;;2.65;;
49502;SDS011;35409;48.776;9.204;2023-12-20T09:06:49;4.35;;;2.30;;
49502;SDS011;35409;48.776;9.204;2023-12-20T09:09:14;7.03;;;2.53;;
49502;SDS011;35409;48.776;9.204;2023-12-20T09:11:40;3.90;;;2.38;;
49502;SDS011;35409;48.776;9.204;2023-12-20T09:14:06;3.67;;;2.40;;
49502;SDS011;35409;48.776;9.204;2023-12-20T09:16:31;3.08;;;2.58;;
49502;SDS011;35409;48.776;9.204;2023-12-20T09:18:57;15.80;;;8.38;;
49502;SDS011;35409;48.776;9.204;2023-12-20T09:21:23;10.27;;;4.50;;
49502;SDS011;35409;48.776;9.204;2023-12-20T09:23:48;4.80;;;2.40;;
49502;SDS011;35409;48.776;9.204;2023-12-20T09:26:14;2.83;;;2.40;;
49502;SDS011;35409;48.776;9.204;2023-12-20T09:28:40;2.92;;;2.30;;
49502;SDS011;35409;48.776;9.204;2023-12-20T09:31:05;6.72;;;2.90;;
49502;SDS011;35409;48.776;9.204;2023-12-20T09:33:31;3.97;;;2.00;;
49502;SDS011;35409;48.776;9.204;2023-12-20T09:35:58;4.97;;;2.05;;
49502;SDS011;35409;48.776;9.204;2023-12-20T09:38:23;5.97;;;2.00;;
49502;SDS011;35409;48.776;9.204;2023-12-20T09:40:49;5.57;;;1.75;;
49502;SDS011;35409;48.776;9.204;2023-12-20T09:43:15;4.03;;;1.50;;
49502;SDS011;35409;48.776;9.204;2023-12-20T09:45:45;4.65;;;1.58;;
49502;SDS011;35409;48.776;9.204;2023-12-20T09:48:13;7.22;;;1.75;;
49502;SDS011;35409;48.776;9.204;2023-12-20T09:50:41;6.45;;;1.38;;
49502;SDS011;35409;48.776;9.204;2023-12-20T09:53:10;2.97;;;1.33;;
49502;SDS011;35409;48.776;9.204;2023-12-20T09:55:40;6.07;;;1.45;;
49502;SDS011;35409;48.776;9.204;2023-12-20T09:58:07;5.90;;;1.30;;
49502;SDS011;35409;48.776;9.204;2023-12-20T10:00:34;6.18;;;1.40;;
49502;SDS011;35409;48.776;9.204;2023-12-20T10:03:00;7.57;;;1.50;;
49502;SDS011;35409;48.776;9.204;2023-12-20T10:05:27;6.15;;;1.13;;
49502;SDS011;35409;48.776;9.204;2023-12-20T10:07:54;9.05;;;1.52;;
49502;SDS011;35409;48.776;9.204;2023-12-20T10:10:20;7.65;;;1.33;;
49502;SDS011;35409;48.776;9.204;2023-12-20T10:13:04;3.33;;;1.23;;
49502;SDS011;35409;48.776;9.204;2023-12-20T10:15:34;9.52;;;1.55;;
49502;SDS011;35409;48.776;9.204;2023-12-20T10:18:01;5.00;;;1.27;;
49502;SDS011;35409;48.776;9.204;2023-12-20T10:20:27;5.03;;;1.30;;
49502;SDS011;35409;48.776;9.204;2023-12-20T10:22:56;8.10;;;1.30;;
49502;SDS011;35409;48.776;9.204;2023-12-20T10:25:23;7.75;;;1.50;;
49502;SDS011;35409;48.776;9.204;2023-12-20T10:27:49;6.57;;;1.48;;
49502;SDS011;35409;48.776;9.204;2023-12-20T10:30:33;7.30;;;1.27;;
49502;SDS011;35409;48.776;9.204;2023-12-20T10:32:58;10.25;;;1.33;;
49502;SDS011;35409;48.776;9.204;2023-12-20T10:35:24;5.65;;;1.40;;
49502;SDS011;35409;48.776;9.204;2023-12-20T10:37:51;8.48;;;1.35;;
49502;SDS011;35409;48.776;9.204;2023-12-20T10:40:21;7.57;;;1.60;;
49502;SDS011;35409;48.776;9.204;2023-12-20T10:42:47;5.68;;;1.20;;
49502;SDS011;35409;48.776;9.204;2023-12-20T10:45:15;4.50;;;1.25;;
49502;SDS011;35409;48.776;9.204;2023-12-20T10:47:42;6.45;;;1.20;;
49502;SDS011;35409;48.776;9.204;2023-12-20T10:50:11;5.43;;;2.20;;
49502;SDS011;35409;48.776;9.204;2023-12-20T10:52:37;7.47;;;1.55;;
49502;SDS011;35409;48.776;9.204;2023-12-20T10:55:03;3.28;;;1.17;;
49502;SDS011;35409;48.776;9.204;2023-12-20T10:57:30;4.00;;;1.35;;
49502;SDS011;35409;48.776;9.204;2023-12-20T10:59:56;3.92;;;1.02;;
49502;SDS011;35409;48.776;9.204;2023-12-20T11:02:31;6.30;;;1.30;;
49502;SDS011;35409;48.776;9.204;2023-12-20T11:05:02;5.45;;;1.38;;
49502;SDS011;35409;48.776;9.204;2023-12-20T11:07:45;3.75;;;1.10;;
49502;SDS011;35409;48.776;9.204;2023-12-20T11:15:21;4.10;;;1.23;;
49502;SDS011;35409;48.776;9.204;2023-12-20T11:17:54;7.80;;;1.65;;
49502;SDS011;35409;48.776;9.204;2023-12-20T11:20:23;5.03;;;1.08;;
49502;SDS011;35409;48.776;9.204;2023-12-20T11:22:59;6.65;;;1.55;;
49502;SDS011;35409;48.776;9.204;2023-12-20T11:25:25;6.68;;;1.15;;
49502;SDS011;35409;48.776;9.204;2023-12-20T11:28:06;6.00;;;1.30;;
49502;SDS011;35409;48.776;9.204;2023-12-20T11:33:22;4.68;;;1.40;;
49502;SDS011;35409;48.776;9.204;2023-12-20T11:35:48;7.78;;;1.40;;
49502;SDS011;35409;48.776;9.204;2023-12-20T11:38:14;6.57;;;1.48;;
49502;SDS011;35409;48.776;9.204;2023-12-20T11:40:43;8.27;;;1.65;;
49502;SDS011;35409;48.776;9.204;2023-12-20T11:43:09;8.82;;;1.42;;
49502;SDS011;35409;48.776;9.204;2023-12-20T11:45:34;4.57;;;1.30;;
49502;SDS011;35409;48.776;9.204;2023-12-20T11:48:01;7.07;;;1.48;;
49502;SDS011;35409;48.776;9.204;2023-12-20T11:50:27;4.43;;;1.17;;
49502;SDS011;35409;48.776;9.204;2023-12-20T11:52:55;4.97;;;1.65;;
49502;SDS011;35409;48.776;9.204;2023-12-20T11:55:24;5.28;;;1.38;;
49502;SDS011;35409;48.776;9.204;2023-12-20T11:57:50;9.30;;;1.25;;
49502;SDS011;35409;48.776;9.204;2023-12-20T12:00:16;5.93;;;2.03;;
49502;SDS011;35409;48.776;9.204;2023-12-20T12:02:43;8.05;;;1.52;;
49502;SDS011;35409;48.776;9.204;2023-12-20T12:05:08;11.45;;;2.10;;
49502;SDS011;35409;48.776;9.204;2023-12-20T12:07:34;4.93;;;1.15;;
49502;SDS011;35409;48.776;9.204;2023-12-20T12:10:00;3.42;;;1.38;;
49502;SDS011;35409;48.776;9.204;2023-12-20T12:12:26;7.10;;;1.40;;
49502;SDS011;35409;48.776;9.204;2023-12-20T12:14:52;7.57;;;1.63;;
49502;SDS011;35409;48.776;9.204;2023-12-20T12:17:19;4.82;;;1.20;;
49502;SDS011;35409;48.776;9.204;2023-12-20T12:19:45;7.13;;;1.35;;
49502;SDS011;35409;48.776;9.204;2023-12-20T12:22:13;5.28;;;0.95;;
49502;SDS011;35409;48.776;9.204;2023-12-20T12:24:41;6.32;;;1.40;;
49502;SDS011;35409;48.776;9.204;2023-12-20T12:27:11;7.50;;;1.25;;
49502;SDS011;35409;48.776;9.204;2023-12-20T12:29:40;5.70;;;1.50;;
49502;SDS011;35409;48.776;9.204;2023-12-20T12:32:06;3.63;;;0.98;;
49502;SDS011;35409;48.776;9.204;2023-12-20T12:34:32;3.67;;;1.02;;
49502;SDS011;35409;48.776;9.204;2023-12-20T12:37:02;7.03;;;1.80;;
49502;SDS011;35409;48.776;9.204;2023-12-20T12:39:30;8.95;;;1.63;;
49502;SDS011;35409;48.776;9.204;2023-12-20T12:41:56;7.43;;;1.30;;
49502;SDS011;35409;48.776;9.204;2023-12-20T12:44:24;4.70;;;1.10;;
49502;SDS011;35409;48.776;9.204;2023-12-20T12:46:50;6.60;;;1.40;;
49502;SDS011;35409;48.776;9.204;2023-12-20T12:49:18;5.60;;;1.23;;
49502;SDS011;35409;48.776;9.204;2023-12-20T12:51:44;4.50;;;1.40;;
49502;SDS011;35409;48.776;9.204;2023-12-20T12:54:10;9.80;;;1.27;;
49502;SDS011;35409;48.776;9.204;2023-12-20T12:56:38;8.55;;;1.55;;
49502;SDS011;35409;48.776;9.204;2023-12-20T12:59:03;3.67;;;1.25;;
49502;SDS011;35409;48.776;9.204;2023-12-20T13:01:30;6.65;;;1.20;;
49502;SDS011;35409;48.776;9.204;2023-12-20T13:03:56;5.13;;;1.50;;
49502;SDS011;35409;48.776;9.204;2023-12-20T13:06:22;6.65;;;1.85;;
49502;SDS011;35409;48.776;9.204;2023-12-20T13:08:47;9.02;;;1.25;;
49502;SDS011;35409;48.776;9.204;2023-12-20T13:11:13;5.85;;;1.13;;
49502;SDS011;35409;48.776;9.204;2023-12-20T13:13:39;9.48;;;1.55;;
49502;SDS011;35409;48.776;9.204;2023-12-20T13:16:04;4.47;;;1.38;;
49502;SDS011;35409;48.776;9.204;2023-12-20T13:18:30;8.25;;;1.73;;
49502;SDS011;35409;48.776;9.204;2023-12-20T13:20:56;4.80;;;1.40;;
49502;SDS011;35409;48.776;9.204;2023-12-20T13:23:21;10.82;;;1.48;;
49502;SDS011;35409;48.776;9.204;2023-12-20T13:25:47;5.03;;;1.23;;
49502;SDS011;35409;48.776;9.204;2023-12-20T13:28:13;6.05;;;1.10;;
49502;SDS011;35409;48.776;9.204;2023-12-20T13:30:39;3.13;;;1.02;;
49502;SDS011;35409;48.776;9.204;2023-12-20T13:33:05;6.00;;;1.67;;
49502;SDS011;35409;48.776;9.204;2023-12-20T13:35:31;5.97;;;1.42;;
49502;SDS011;35409;48.776;9.204;2023-12-20T13:37:58;6.47;;;1.48;;
49502;SDS011;35409;48.776;9.204;2023-12-20T13:40:24;6.72;;;1.70;;
49502;SDS011;35409;48.776;9.204;2023-12-20T13:42:49;4.30;;;0.80;;
49502;SDS011;35409;48.776;9.204;2023-12-20T13:45:15;6.03;;;1.05;;
49502;SDS011;35409;48.776;9.204;2023-12-20T13:47:41;3.70;;;0.98;;
49502;SDS011;35409;48.776;9.204;2023-12-20T13:50:06;3.15;;;0.88;;
49502;SDS011;35409;48.776;9.204;2023-12-20T13:52:32;7.18;;;1.33;;
49502;SDS011;35409;48.776;9.204;2023-12-20T13:54:58;2.92;;;0.90;;
49502;SDS011;35409;48.776;9.204;2023-12-20T13:57:23;5.82;;;1.13;;
49502;SDS011;35409;48.776;9.204;2023-12-20T13:59:49;6.25;;;1.48;;
49502;SDS011;35409;48.776;9.204;2023-12-20T14:02:15;6.50;;;1.50;;
49502;SDS011;35409;48.776;9.204;2023-12-20T14:04:41;5.40;;;1.38;;
49502;SDS011;35409;48.776;9.204;2023-12-20T14:07:07;3.67;;;0.93;;
49502;SDS011;35409;48.776;9.204;2023-12-20T14:09:32;5.10;;;1.23;;
49502;SDS011;35409;48.776;9.204;2023-12-20T14:11:59;4.68;;;1.38;;
49502;SDS011;35409;48.776;9.204;2023-12-20T14:14:24;7.22;;;1.52;;
49502;SDS011;35409;48.776;9.204;2023-12-20T14:16:50;5.25;;;0.98;;
49502;SDS011;35409;48.776;9.204;2023-12-20T14:19:16;5.50;;;1.10;;
49502;SDS011;35409;48.776;9.204;2023-12-20T14:21:42;5.70;;;1.20;;
49502;SDS011;35409;48.776;9.204;2023-12-20T14:24:10;3.33;;;1.00;;
49502;SDS011;35409;48.776;9.204;2023-12-20T14:26:35;4.78;;;1.25;;
49502;SDS011;35409;48.776;9.204;2023-12-20T14:29:02;5.05;;;0.95;;
49502;SDS011;35409;48.776;9.204;2023-12-20T14:31:29;4.03;;;1.00;;
49502;SDS011;35409;48.776;9.204;2023-12-20T14:33:54;6.45;;;1.17;;
49502;SDS011;35409;48.776;9.204;2023-12-20T14:36:21;5.65;;;1.40;;
49502;SDS011;35409;48.776;9.204;2023-12-20T14:38:47;4.78;;;1.42;;
49502;SDS011;35409;48.776;9.204;2023-12-20T14:41:13;3.78;;;1.13;;
49502;SDS011;35409;48.776;9.204;2023-12-20T14:43:39;7.53;;;1.17;;
49502;SDS011;35409;48.776;9.204;2023-12-20T14:46:04;6.35;;;1.23;;
49502;SDS011;35409;48.776;9.204;2023-12-20T14:48:30;8.30;;;0.90;;
49502;SDS011;35409;48.776;9.204;2023-12-20T14:50:57;5.22;;;0.98;;